sensor_id;sensor_type;location;lat;lon;timestamp;temperature;humidity
60727;DHT22;46577;49.004;12.120;2022-12-18T00:01:38;-3.30;99.90
60727;DHT22;46577;49.004;12.120;2022-12-18T00:04:04;-3.20;99.90
60727;DHT22;46577;49.004;12.120;2022-12-18T00:06:31;-3.20;99.90
60727;DHT22;46577;49.004;12.120;2022-12-18T00:08:58;-3.20;99.90
60727;DHT22;46577;49.004;12.120;2022-12-18T00:11:27;-3.30;99.90
60727;DHT22;46577;49.004;12.120;2022-12-18T00:13:54;-3.30;99.90
60727;DHT22;46577;49.004;12.120;2022-12-18T00:16:22;-3.20;99.90
60727;DHT22;46577;49.004;12.120;2022-12-18T00:18:49;-3.20;99.90
60727;DHT22;46577;49.004;12.120;2022-12-18T00:21:16;-3.10;99.90
60727;DHT22;46577;49.004;12.120;2022-12-18T00:23:43;-3.20;99.90
60727;DHT22;46577;49.004;12.120;2022-12-18T00:26:14;-3.20;99.90
60727;DHT22;46577;49.004;12.120;2022-12-18T00:28:44;-3.20;99.90
60727;DHT22;46577;49.004;12.120;2022-12-18T00:31:12;-3.10;99.90
60727;DHT22;46577;49.004;12.120;2022-12-18T00:33:38;-3.00;99.90
60727;DHT22;46577;49.004;12.120;2022-12-18T00:36:09;-2.90;99.90
60727;DHT22;46577;49.004;12.120;2022-12-18T00:38:36;-3.00;99.90
60727;DHT22;46577;49.004;12.120;2022-12-18T00:41:02;-3.00;99.90
60727;DHT22;46577;49.004;12.120;2022-12-18T00:43:28;-2.90;99.90
60727;DHT22;46577;49.004;12.120;2022-12-18T00:45:53;-2.80;99.90
60727;DHT22;46577;49.004;12.120;2022-12-18T00:48:19;-2.70;99.90
60727;DHT22;46577;49.004;12.120;2022-12-18T00:50:45;-2.80;99.90
60727;DHT22;46577;49.004;12.120;2022-12-18T00:53:11;-2.70;99.90
60727;DHT22;46577;49.004;12.120;2022-12-18T00:55:41;-2.70;99.90
60727;DHT22;46577;49.004;12.120;2022-12-18T00:58:08;-2.80;99.90
60727;DHT22;46577;49.004;12.120;2022-12-18T01:00:34;-2.80;99.90
60727;DHT22;46577;49.004;12.120;2022-12-18T01:03:00;-2.80;99.90
60727;DHT22;46577;49.004;12.120;2022-12-18T01:05:26;-2.80;99.90
60727;DHT22;46577;49.004;12.120;2022-12-18T01:07:51;-2.90;99.90
60727;DHT22;46577;49.004;12.120;2022-12-18T01:10:17;-2.90;99.90
60727;DHT22;46577;49.004;12.120;2022-12-18T01:12:43;-3.90;99.90
60727;DHT22;46577;49.004;12.120;2022-12-18T01:15:10;-2.90;99.90
60727;DHT22;46577;49.004;12.120;2022-12-18T01:17:37;-2.90;99.90
60727;DHT22;46577;49.004;12.120;2022-12-18T01:20:03;-2.90;99.90
60727;DHT22;46577;49.004;12.120;2022-12-18T01:22:28;-2.90;99.90
60727;DHT22;46577;49.004;12.120;2022-12-18T01:24:54;-2.90;99.90
60727;DHT22;46577;49.004;12.120;2022-12-18T01:27:20;-2.80;99.90
60727;DHT22;46577;49.004;12.120;2022-12-18T01:29:45;-2.70;99.90
60727;DHT22;46577;49.004;12.120;2022-12-18T01:32:11;-2.80;99.90
60727;DHT22;46577;49.004;12.120;2022-12-18T01:34:37;-2.80;99.90
60727;DHT22;46577;49.004;12.120;2022-12-18T01:37:04;-2.80;99.90
60727;DHT22;46577;49.004;12.120;2022-12-18T01:39:30;-2.80;99.90
60727;DHT22;46577;49.004;12.120;2022-12-18T01:41:57;-2.80;99.90
60727;DHT22;46577;49.004;12.120;2022-12-18T01:49:55;-2.60;99.90
60727;DHT22;46577;49.004;12.120;2022-12-18T01:52:21;-2.50;99.90
60727;DHT22;46577;49.004;12.120;2022-12-18T01:54:49;-2.50;99.90
60727;DHT22;46577;49.004;12.120;2022-12-18T01:57:16;-2.50;99.90
60727;DHT22;46577;49.004;12.120;2022-12-18T01:59:45;-2.60;99.90
60727;DHT22;46577;49.004;12.120;2022-12-18T02:02:15;-2.60;99.90
60727;DHT22;46577;49.004;12.120;2022-12-18T02:04:41;-2.50;99.90
60727;DHT22;46577;49.004;12.120;2022-12-18T02:10:10;-2.70;99.90
60727;DHT22;46577;49.004;12.120;2022-12-18T02:12:48;-2.70;99.90
60727;DHT22;46577;49.004;12.120;2022-12-18T02:15:32;-2.60;99.90
60727;DHT22;46577;49.004;12.120;2022-12-18T02:18:08;-2.60;99.90
60727;DHT22;46577;49.004;12.120;2022-12-18T02:20:54;-2.60;99.90
60727;DHT22;46577;49.004;12.120;2022-12-18T02:26:30;-2.60;99.90
60727;DHT22;46577;49.004;12.120;2022-12-18T02:29:08;-2.70;99.90
60727;DHT22;46577;49.004;12.120;2022-12-18T02:31:56;-2.70;99.90
60727;DHT22;46577;49.004;12.120;2022-12-18T02:34:28;-2.70;99.90
60727;DHT22;46577;49.004;12.120;2022-12-18T02:36:55;-2.70;99.90
60727;DHT22;46577;49.004;12.120;2022-12-18T02:39:24;-2.70;99.90
60727;DHT22;46577;49.004;12.120;2022-12-18T02:41:50;-2.80;99.90
60727;DHT22;46577;49.004;12.120;2022-12-18T02:44:16;-2.80;99.90
60727;DHT22;46577;49.004;12.120;2022-12-18T02:46:48;-2.80;99.90
60727;DHT22;46577;49.004;12.120;2022-12-18T02:51:54;-2.90;99.90
60727;DHT22;46577;49.004;12.120;2022-12-18T02:54:45;-2.90;99.90
60727;DHT22;46577;49.004;12.120;2022-12-18T03:05:18;-3.10;99.90
60727;DHT22;46577;49.004;12.120;2022-12-18T03:07:57;-3.10;99.90
60727;DHT22;46577;49.004;12.120;2022-12-18T03:10:28;-3.10;99.90
60727;DHT22;46577;49.004;12.120;2022-12-18T03:13:03;-3.00;99.90
60727;DHT22;46577;49.004;12.120;2022-12-18T03:15:34;-2.90;99.90
60727;DHT22;46577;49.004;12.120;2022-12-18T03:18:15;-3.00;99.90
60727;DHT22;46577;49.004;12.120;2022-12-18T03:20:44;-2.90;99.90
60727;DHT22;46577;49.004;12.120;2022-12-18T03:23:20;-2.80;99.90
60727;DHT22;46577;49.004;12.120;2022-12-18T03:25:49;-2.80;99.90
60727;DHT22;46577;49.004;12.120;2022-12-18T03:28:20;-2.90;99.90
60727;DHT22;46577;49.004;12.120;2022-12-18T03:30:49;-2.80;99.90
60727;DHT22;46577;49.004;12.120;2022-12-18T03:33:20;-2.80;99.90
60727;DHT22;46577;49.004;12.120;2022-12-18T03:35:49;-2.80;99.90
60727;DHT22;46577;49.004;12.120;2022-12-18T03:38:15;-2.90;99.90
60727;DHT22;46577;49.004;12.120;2022-12-18T03:40:46;-2.90;99.90
60727;DHT22;46577;49.004;12.120;2022-12-18T03:46:11;-3.10;99.90
60727;DHT22;46577;49.004;12.120;2022-12-18T03:48:44;-3.00;99.90
60727;DHT22;46577;49.004;12.120;2022-12-18T03:51:41;-2.90;99.90
60727;DHT22;46577;49.004;12.120;2022-12-18T03:54:06;-3.00;99.90
60727;DHT22;46577;49.004;12.120;2022-12-18T03:56:38;-3.00;99.90
60727;DHT22;46577;49.004;12.120;2022-12-18T03:59:06;-2.90;99.90
60727;DHT22;46577;49.004;12.120;2022-12-18T04:01:35;-3.00;99.90
60727;DHT22;46577;49.004;12.120;2022-12-18T04:04:03;-3.00;99.90
60727;DHT22;46577;49.004;12.120;2022-12-18T04:06:30;-3.00;99.90
60727;DHT22;46577;49.004;12.120;2022-12-18T04:08:58;-3.00;99.90
60727;DHT22;46577;49.004;12.120;2022-12-18T04:11:24;-2.90;99.90
60727;DHT22;46577;49.004;12.120;2022-12-18T04:13:50;-2.90;99.90
60727;DHT22;46577;49.004;12.120;2022-12-18T04:16:20;-2.90;99.90
60727;DHT22;46577;49.004;12.120;2022-12-18T04:18:45;-2.80;99.90
60727;DHT22;46577;49.004;12.120;2022-12-18T04:21:11;-2.90;99.90
60727;DHT22;46577;49.004;12.120;2022-12-18T04:23:36;-2.90;99.90
60727;DHT22;46577;49.004;12.120;2022-12-18T04:26:02;-2.90;99.90
60727;DHT22;46577;49.004;12.120;2022-12-18T04:28:28;-2.90;99.90
60727;DHT22;46577;49.004;12.120;2022-12-18T04:30:53;-2.90;99.90
60727;DHT22;46577;49.004;12.120;2022-12-18T04:33:19;-3.00;99.90
60727;DHT22;46577;49.004;12.120;2022-12-18T04:35:45;-3.00;99.90
60727;DHT22;46577;49.004;12.120;2022-12-18T04:38:11;-2.90;99.90
60727;DHT22;46577;49.004;12.120;2022-12-18T04:40:37;-2.90;99.90
60727;DHT22;46577;49.004;12.120;2022-12-18T04:43:03;-3.00;99.90
60727;DHT22;46577;49.004;12.120;2022-12-18T04:45:32;-3.00;99.90
60727;DHT22;46577;49.004;12.120;2022-12-18T04:47:59;-2.90;99.90
60727;DHT22;46577;49.004;12.120;2022-12-18T04:50:25;-3.00;99.90
60727;DHT22;46577;49.004;12.120;2022-12-18T04:52:50;-3.00;99.90
60727;DHT22;46577;49.004;12.120;2022-12-18T04:55:16;-3.00;99.90
60727;DHT22;46577;49.004;12.120;2022-12-18T04:57:41;-2.90;99.90
60727;DHT22;46577;49.004;12.120;2022-12-18T05:00:07;-2.90;99.90
60727;DHT22;46577;49.004;12.120;2022-12-18T05:02:33;-2.90;99.90
60727;DHT22;46577;49.004;12.120;2022-12-18T05:04:59;-3.00;99.90
60727;DHT22;46577;49.004;12.120;2022-12-18T05:07:24;-3.00;99.90
60727;DHT22;46577;49.004;12.120;2022-12-18T05:09:50;-2.90;99.90
60727;DHT22;46577;49.004;12.120;2022-12-18T05:12:16;-2.90;99.90
60727;DHT22;46577;49.004;12.120;2022-12-18T05:14:41;-3.00;99.90
60727;DHT22;46577;49.004;12.120;2022-12-18T05:17:07;-3.00;99.90
60727;DHT22;46577;49.004;12.120;2022-12-18T05:19:32;-2.90;99.90
60727;DHT22;46577;49.004;12.120;2022-12-18T05:21:58;-2.90;99.90
60727;DHT22;46577;49.004;12.120;2022-12-18T05:24:24;-3.00;99.90
60727;DHT22;46577;49.004;12.120;2022-12-18T05:26:49;-3.00;99.90
60727;DHT22;46577;49.004;12.120;2022-12-18T05:29:15;-3.20;99.90
60727;DHT22;46577;49.004;12.120;2022-12-18T05:31:40;-3.30;99.90
60727;DHT22;46577;49.004;12.120;2022-12-18T05:34:06;-3.40;99.90
60727;DHT22;46577;49.004;12.120;2022-12-18T05:36:32;-3.40;99.90
60727;DHT22;46577;49.004;12.120;2022-12-18T05:38:58;-3.40;99.90
60727;DHT22;46577;49.004;12.120;2022-12-18T05:41:23;-3.40;99.90
60727;DHT22;46577;49.004;12.120;2022-12-18T05:43:49;-3.40;99.90
60727;DHT22;46577;49.004;12.120;2022-12-18T05:46:16;-3.40;99.90
60727;DHT22;46577;49.004;12.120;2022-12-18T05:48:43;-3.40;99.90
60727;DHT22;46577;49.004;12.120;2022-12-18T05:51:14;-3.40;99.90
60727;DHT22;46577;49.004;12.120;2022-12-18T05:53:41;-3.30;99.90
60727;DHT22;46577;49.004;12.120;2022-12-18T05:56:10;-3.40;99.90
60727;DHT22;46577;49.004;12.120;2022-12-18T05:58:36;-3.40;99.90
60727;DHT22;46577;49.004;12.120;2022-12-18T06:03:36;-3.40;99.90
60727;DHT22;46577;49.004;12.120;2022-12-18T06:06:02;-3.30;99.90
60727;DHT22;46577;49.004;12.120;2022-12-18T06:08:28;-3.30;99.90
60727;DHT22;46577;49.004;12.120;2022-12-18T06:10:54;-3.30;99.90
60727;DHT22;46577;49.004;12.120;2022-12-18T06:13:20;-3.40;99.90
60727;DHT22;46577;49.004;12.120;2022-12-18T06:15:46;-3.50;99.90
60727;DHT22;46577;49.004;12.120;2022-12-18T06:18:11;-3.60;99.90
60727;DHT22;46577;49.004;12.120;2022-12-18T06:20:37;-3.60;99.90
60727;DHT22;46577;49.004;12.120;2022-12-18T06:23:05;-3.60;99.90
60727;DHT22;46577;49.004;12.120;2022-12-18T06:25:31;-3.70;99.90
60727;DHT22;46577;49.004;12.120;2022-12-18T06:27:57;-3.70;99.90
60727;DHT22;46577;49.004;12.120;2022-12-18T06:30:23;-3.70;99.90
60727;DHT22;46577;49.004;12.120;2022-12-18T06:32:49;-3.60;99.90
60727;DHT22;46577;49.004;12.120;2022-12-18T06:35:15;-3.60;99.90
60727;DHT22;46577;49.004;12.120;2022-12-18T06:37:40;-3.60;99.90
60727;DHT22;46577;49.004;12.120;2022-12-18T06:40:07;-3.60;99.90
60727;DHT22;46577;49.004;12.120;2022-12-18T06:42:33;-3.60;99.90
60727;DHT22;46577;49.004;12.120;2022-12-18T06:44:58;-3.70;99.90
60727;DHT22;46577;49.004;12.120;2022-12-18T06:47:24;-3.70;99.90
60727;DHT22;46577;49.004;12.120;2022-12-18T06:49:50;-3.70;99.90
60727;DHT22;46577;49.004;12.120;2022-12-18T06:52:15;-3.70;99.90
60727;DHT22;46577;49.004;12.120;2022-12-18T06:54:41;-3.70;99.90
60727;DHT22;46577;49.004;12.120;2022-12-18T06:57:06;-3.70;99.90
60727;DHT22;46577;49.004;12.120;2022-12-18T06:59:32;-3.70;99.90
60727;DHT22;46577;49.004;12.120;2022-12-18T07:01:58;-3.70;99.90
60727;DHT22;46577;49.004;12.120;2022-12-18T07:04:28;-3.60;99.90
60727;DHT22;46577;49.004;12.120;2022-12-18T07:06:54;-3.60;99.90
60727;DHT22;46577;49.004;12.120;2022-12-18T07:09:19;-3.50;99.90
60727;DHT22;46577;49.004;12.120;2022-12-18T07:11:45;-3.50;99.90
60727;DHT22;46577;49.004;12.120;2022-12-18T07:14:11;-3.50;99.90
60727;DHT22;46577;49.004;12.120;2022-12-18T07:16:36;-3.50;99.90
60727;DHT22;46577;49.004;12.120;2022-12-18T07:19:02;-3.40;99.90
60727;DHT22;46577;49.004;12.120;2022-12-18T07:21:27;-3.50;99.90
60727;DHT22;46577;49.004;12.120;2022-12-18T07:23:53;-3.50;99.90
60727;DHT22;46577;49.004;12.120;2022-12-18T07:26:20;-3.50;99.90
60727;DHT22;46577;49.004;12.120;2022-12-18T07:28:46;-3.40;99.90
60727;DHT22;46577;49.004;12.120;2022-12-18T07:31:15;-3.40;99.90
60727;DHT22;46577;49.004;12.120;2022-12-18T07:33:42;-3.30;99.90
60727;DHT22;46577;49.004;12.120;2022-12-18T07:36:09;-3.30;99.90
60727;DHT22;46577;49.004;12.120;2022-12-18T07:38:36;-3.50;99.90
60727;DHT22;46577;49.004;12.120;2022-12-18T07:41:05;-3.60;99.90
60727;DHT22;46577;49.004;12.120;2022-12-18T07:43:31;-3.50;99.90
60727;DHT22;46577;49.004;12.120;2022-12-18T07:45:56;-3.60;99.90
60727;DHT22;46577;49.004;12.120;2022-12-18T07:48:22;-3.50;99.90
60727;DHT22;46577;49.004;12.120;2022-12-18T07:50:47;-3.40;99.90
60727;DHT22;46577;49.004;12.120;2022-12-18T07:53:13;-3.40;99.90
60727;DHT22;46577;49.004;12.120;2022-12-18T07:55:40;-3.40;99.90
60727;DHT22;46577;49.004;12.120;2022-12-18T07:58:07;-3.40;99.90
60727;DHT22;46577;49.004;12.120;2022-12-18T08:00:33;-3.40;99.90
60727;DHT22;46577;49.004;12.120;2022-12-18T08:02:58;-3.30;99.90
60727;DHT22;46577;49.004;12.120;2022-12-18T08:05:24;-3.30;99.90
60727;DHT22;46577;49.004;12.120;2022-12-18T08:07:50;-3.40;99.90
60727;DHT22;46577;49.004;12.120;2022-12-18T08:10:16;-3.30;99.90
60727;DHT22;46577;49.004;12.120;2022-12-18T08:12:41;-3.30;99.90
60727;DHT22;46577;49.004;12.120;2022-12-18T08:15:08;-3.20;99.90
60727;DHT22;46577;49.004;12.120;2022-12-18T08:17:33;-3.20;99.90
60727;DHT22;46577;49.004;12.120;2022-12-18T08:19:59;-3.30;99.90
60727;DHT22;46577;49.004;12.120;2022-12-18T08:22:25;-3.40;99.90
60727;DHT22;46577;49.004;12.120;2022-12-18T08:24:50;-3.40;99.90
60727;DHT22;46577;49.004;12.120;2022-12-18T08:27:16;-3.30;99.90
60727;DHT22;46577;49.004;12.120;2022-12-18T08:29:41;-3.30;99.90
60727;DHT22;46577;49.004;12.120;2022-12-18T08:32:07;-3.30;99.90
60727;DHT22;46577;49.004;12.120;2022-12-18T08:34:33;-3.40;99.90
60727;DHT22;46577;49.004;12.120;2022-12-18T08:36:59;-3.20;99.90
60727;DHT22;46577;49.004;12.120;2022-12-18T08:39:24;-3.20;99.90
60727;DHT22;46577;49.004;12.120;2022-12-18T08:41:50;-3.30;99.90
60727;DHT22;46577;49.004;12.120;2022-12-18T08:44:34;-3.40;99.90
60727;DHT22;46577;49.004;12.120;2022-12-18T08:47:06;-3.40;99.90
60727;DHT22;46577;49.004;12.120;2022-12-18T08:49:33;-3.50;99.90
60727;DHT22;46577;49.004;12.120;2022-12-18T08:51:59;-3.50;99.90
60727;DHT22;46577;49.004;12.120;2022-12-18T08:54:25;-3.50;99.90
60727;DHT22;46577;49.004;12.120;2022-12-18T08:56:51;-3.40;99.90
60727;DHT22;46577;49.004;12.120;2022-12-18T08:59:18;-3.30;99.90
60727;DHT22;46577;49.004;12.120;2022-12-18T09:01:45;-3.40;99.90
60727;DHT22;46577;49.004;12.120;2022-12-18T09:04:10;-3.30;99.90
60727;DHT22;46577;49.004;12.120;2022-12-18T09:06:36;-3.20;99.90
60727;DHT22;46577;49.004;12.120;2022-12-18T09:09:03;-3.10;99.90
60727;DHT22;46577;49.004;12.120;2022-12-18T09:11:29;-3.20;99.90
60727;DHT22;46577;49.004;12.120;2022-12-18T09:13:56;-3.10;99.90
60727;DHT22;46577;49.004;12.120;2022-12-18T09:16:23;-3.00;99.90
60727;DHT22;46577;49.004;12.120;2022-12-18T09:18:49;-3.10;99.90
60727;DHT22;46577;49.004;12.120;2022-12-18T09:21:20;-3.00;99.90
60727;DHT22;46577;49.004;12.120;2022-12-18T09:23:50;-3.00;99.90
60727;DHT22;46577;49.004;12.120;2022-12-18T09:26:16;-3.10;99.90
60727;DHT22;46577;49.004;12.120;2022-12-18T09:28:42;-3.10;99.90
60727;DHT22;46577;49.004;12.120;2022-12-18T09:31:10;-3.00;99.90
60727;DHT22;46577;49.004;12.120;2022-12-18T09:33:36;-3.00;99.90
60727;DHT22;46577;49.004;12.120;2022-12-18T09:36:04;-3.00;99.90
60727;DHT22;46577;49.004;12.120;2022-12-18T09:38:30;-1.60;99.90
60727;DHT22;46577;49.004;12.120;2022-12-18T09:41:46;-3.00;99.90
60727;DHT22;46577;49.004;12.120;2022-12-18T09:43:55;-2.90;99.90
60727;DHT22;46577;49.004;12.120;2022-12-18T09:46:31;-2.80;99.90
60727;DHT22;46577;49.004;12.120;2022-12-18T09:49:00;-2.70;99.90
60727;DHT22;46577;49.004;12.120;2022-12-18T09:51:33;-2.90;99.90
60727;DHT22;46577;49.004;12.120;2022-12-18T09:54:07;-1.20;99.90
60727;DHT22;46577;49.004;12.120;2022-12-18T09:56:40;-2.90;99.90
60727;DHT22;46577;49.004;12.120;2022-12-18T09:59:23;-2.80;99.90
60727;DHT22;46577;49.004;12.120;2022-12-18T10:01:50;-2.90;99.90
60727;DHT22;46577;49.004;12.120;2022-12-18T10:04:15;-2.80;99.90
60727;DHT22;46577;49.004;12.120;2022-12-18T10:07:02;-2.60;99.90
60727;DHT22;46577;49.004;12.120;2022-12-18T10:12:47;-2.80;99.90
60727;DHT22;46577;49.004;12.120;2022-12-18T10:15:19;-2.90;99.90
60727;DHT22;46577;49.004;12.120;2022-12-18T10:18:02;-2.80;99.90
60727;DHT22;46577;49.004;12.120;2022-12-18T10:20:47;-2.80;99.90
60727;DHT22;46577;49.004;12.120;2022-12-18T10:28:13;-2.70;99.90
60727;DHT22;46577;49.004;12.120;2022-12-18T10:30:40;-2.60;99.90
60727;DHT22;46577;49.004;12.120;2022-12-18T10:33:11;-2.60;99.90
60727;DHT22;46577;49.004;12.120;2022-12-18T10:35:40;-1.60;99.90
60727;DHT22;46577;49.004;12.120;2022-12-18T10:43:16;-2.70;99.90
60727;DHT22;46577;49.004;12.120;2022-12-18T10:48:24;-2.80;99.90
60727;DHT22;46577;49.004;12.120;2022-12-18T10:50:51;-2.80;99.90
60727;DHT22;46577;49.004;12.120;2022-12-18T10:53:25;-3.00;99.90
60727;DHT22;46577;49.004;12.120;2022-12-18T10:55:55;-3.10;99.90
60727;DHT22;46577;49.004;12.120;2022-12-18T11:06:07;-2.70;99.90
60727;DHT22;46577;49.004;12.120;2022-12-18T11:08:33;-2.70;99.90
60727;DHT22;46577;49.004;12.120;2022-12-18T11:10:59;-2.80;99.90
60727;DHT22;46577;49.004;12.120;2022-12-18T11:13:27;-2.70;99.90
60727;DHT22;46577;49.004;12.120;2022-12-18T11:15:53;-2.70;99.90
60727;DHT22;46577;49.004;12.120;2022-12-18T11:18:33;-2.50;99.90
60727;DHT22;46577;49.004;12.120;2022-12-18T11:21:07;-2.50;99.90
60727;DHT22;46577;49.004;12.120;2022-12-18T11:23:35;-2.50;99.90
60727;DHT22;46577;49.004;12.120;2022-12-18T11:26:03;-2.30;99.90
60727;DHT22;46577;49.004;12.120;2022-12-18T11:28:36;-2.20;99.90
60727;DHT22;46577;49.004;12.120;2022-12-18T11:31:21;-2.00;99.90
60727;DHT22;46577;49.004;12.120;2022-12-18T11:33:55;-1.90;99.90
60727;DHT22;46577;49.004;12.120;2022-12-18T11:36:22;-1.90;99.90
60727;DHT22;46577;49.004;12.120;2022-12-18T11:38:49;-1.90;99.90
60727;DHT22;46577;49.004;12.120;2022-12-18T11:44:32;-1.70;99.90
60727;DHT22;46577;49.004;12.120;2022-12-18T11:47:05;-1.60;99.90
60727;DHT22;46577;49.004;12.120;2022-12-18T11:49:35;-1.60;99.90
60727;DHT22;46577;49.004;12.120;2022-12-18T11:52:18;-1.50;99.90
60727;DHT22;46577;49.004;12.120;2022-12-18T11:54:44;-1.60;99.90
60727;DHT22;46577;49.004;12.120;2022-12-18T12:00:16;-1.40;99.90
60727;DHT22;46577;49.004;12.120;2022-12-18T12:03:16;-1.30;99.90
60727;DHT22;46577;49.004;12.120;2022-12-18T12:11:33;-1.20;99.90
60727;DHT22;46577;49.004;12.120;2022-12-18T12:30:57;-1.50;99.90
60727;DHT22;46577;49.004;12.120;2022-12-18T12:36:26;-1.60;99.90
60727;DHT22;46577;49.004;12.120;2022-12-18T12:38:59;-1.60;99.90
60727;DHT22;46577;49.004;12.120;2022-12-18T12:41:31;-1.50;99.90
60727;DHT22;46577;49.004;12.120;2022-12-18T12:44:43;-1.40;99.90
60727;DHT22;46577;49.004;12.120;2022-12-18T12:47:41;-1.70;99.90
60727;DHT22;46577;49.004;12.120;2022-12-18T12:50:14;-1.80;99.90
60727;DHT22;46577;49.004;12.120;2022-12-18T12:52:46;-2.20;99.90
60727;DHT22;46577;49.004;12.120;2022-12-18T12:55:17;-2.20;99.90
60727;DHT22;46577;49.004;12.120;2022-12-18T12:57:52;-2.20;99.90
60727;DHT22;46577;49.004;12.120;2022-12-18T13:00:19;-2.20;99.90
60727;DHT22;46577;49.004;12.120;2022-12-18T13:03:15;-2.10;99.90
60727;DHT22;46577;49.004;12.120;2022-12-18T13:05:49;-1.90;99.90
60727;DHT22;46577;49.004;12.120;2022-12-18T13:08:53;-1.70;99.90
60727;DHT22;46577;49.004;12.120;2022-12-18T13:14:26;-1.70;99.90
60727;DHT22;46577;49.004;12.120;2022-12-18T13:19:44;-2.00;99.90
60727;DHT22;46577;49.004;12.120;2022-12-18T13:22:22;-2.00;99.90
60727;DHT22;46577;49.004;12.120;2022-12-18T13:24:48;-2.20;99.90
60727;DHT22;46577;49.004;12.120;2022-12-18T13:43:42;-2.00;99.90
60727;DHT22;46577;49.004;12.120;2022-12-18T13:46:27;-1.90;99.90
60727;DHT22;46577;49.004;12.120;2022-12-18T13:51:43;-1.90;99.90
60727;DHT22;46577;49.004;12.120;2022-12-18T13:54:34;-1.70;99.90
60727;DHT22;46577;49.004;12.120;2022-12-18T13:57:01;-1.80;99.90
60727;DHT22;46577;49.004;12.120;2022-12-18T13:59:35;-1.90;99.90
60727;DHT22;46577;49.004;12.120;2022-12-18T14:02:17;-2.00;99.90
60727;DHT22;46577;49.004;12.120;2022-12-18T14:04:45;-2.00;99.90
60727;DHT22;46577;49.004;12.120;2022-12-18T14:07:22;-2.00;99.90
60727;DHT22;46577;49.004;12.120;2022-12-18T14:09:57;-2.10;99.90
60727;DHT22;46577;49.004;12.120;2022-12-18T14:12:32;-2.20;99.90
60727;DHT22;46577;49.004;12.120;2022-12-18T14:17:53;-2.30;99.90
60727;DHT22;46577;49.004;12.120;2022-12-18T14:20:20;-2.50;99.90
60727;DHT22;46577;49.004;12.120;2022-12-18T14:22:48;-2.40;99.90
60727;DHT22;46577;49.004;12.120;2022-12-18T14:25:15;-2.50;99.90
60727;DHT22;46577;49.004;12.120;2022-12-18T14:28:24;-2.50;99.90
60727;DHT22;46577;49.004;12.120;2022-12-18T14:30:43;-2.50;99.90
60727;DHT22;46577;49.004;12.120;2022-12-18T14:33:15;-2.60;99.90
60727;DHT22;46577;49.004;12.120;2022-12-18T14:36:01;-2.70;99.90
60727;DHT22;46577;49.004;12.120;2022-12-18T14:38:35;-2.70;99.90
60727;DHT22;46577;49.004;12.120;2022-12-18T14:41:12;-2.80;99.90
60727;DHT22;46577;49.004;12.120;2022-12-18T14:43:40;-2.90;99.90
60727;DHT22;46577;49.004;12.120;2022-12-18T14:48:59;-3.00;99.90
60727;DHT22;46577;49.004;12.120;2022-12-18T14:51:26;-3.00;99.90
60727;DHT22;46577;49.004;12.120;2022-12-18T14:53:57;-3.10;99.90
60727;DHT22;46577;49.004;12.120;2022-12-18T14:56:32;-3.10;99.90
60727;DHT22;46577;49.004;12.120;2022-12-18T14:59:03;-3.30;99.90
60727;DHT22;46577;49.004;12.120;2022-12-18T15:01:33;-3.40;99.90
60727;DHT22;46577;49.004;12.120;2022-12-18T15:04:00;-3.50;99.90
60727;DHT22;46577;49.004;12.120;2022-12-18T15:06:32;-3.60;99.90
60727;DHT22;46577;49.004;12.120;2022-12-18T15:09:01;-3.60;99.90
60727;DHT22;46577;49.004;12.120;2022-12-18T15:11:33;-3.60;99.90
60727;DHT22;46577;49.004;12.120;2022-12-18T15:14:00;-3.60;99.90
60727;DHT22;46577;49.004;12.120;2022-12-18T15:16:53;-3.60;99.90
60727;DHT22;46577;49.004;12.120;2022-12-18T15:19:21;-3.60;99.90
60727;DHT22;46577;49.004;12.120;2022-12-18T15:21:47;-3.50;99.90
60727;DHT22;46577;49.004;12.120;2022-12-18T15:24:18;-3.50;99.90
60727;DHT22;46577;49.004;12.120;2022-12-18T15:26:45;-3.60;99.90
60727;DHT22;46577;49.004;12.120;2022-12-18T15:29:21;-3.70;99.90
60727;DHT22;46577;49.004;12.120;2022-12-18T15:32:04;-3.80;99.90
60727;DHT22;46577;49.004;12.120;2022-12-18T15:34:31;-3.80;99.90
60727;DHT22;46577;49.004;12.120;2022-12-18T15:36:59;-5.10;99.90
60727;DHT22;46577;49.004;12.120;2022-12-18T15:39:25;-3.90;99.90
60727;DHT22;46577;49.004;12.120;2022-12-18T15:41:51;-3.80;99.90
60727;DHT22;46577;49.004;12.120;2022-12-18T15:44:35;-3.80;99.90
60727;DHT22;46577;49.004;12.120;2022-12-18T15:47:01;-3.80;99.90
60727;DHT22;46577;49.004;12.120;2022-12-18T15:49:27;-3.80;99.90
60727;DHT22;46577;49.004;12.120;2022-12-18T15:51:56;-3.80;99.90
60727;DHT22;46577;49.004;12.120;2022-12-18T15:54:23;-3.80;99.90
60727;DHT22;46577;49.004;12.120;2022-12-18T15:57:10;-3.80;99.90
60727;DHT22;46577;49.004;12.120;2022-12-18T15:59:55;-3.80;99.90
60727;DHT22;46577;49.004;12.120;2022-12-18T16:02:24;-3.80;99.90
60727;DHT22;46577;49.004;12.120;2022-12-18T16:04:51;-3.80;99.90
60727;DHT22;46577;49.004;12.120;2022-12-18T16:07:17;-3.90;99.90
60727;DHT22;46577;49.004;12.120;2022-12-18T16:09:43;-3.90;99.90
60727;DHT22;46577;49.004;12.120;2022-12-18T16:12:18;-3.90;99.90
60727;DHT22;46577;49.004;12.120;2022-12-18T16:14:45;-3.80;99.90
60727;DHT22;46577;49.004;12.120;2022-12-18T16:17:12;-3.90;99.90
60727;DHT22;46577;49.004;12.120;2022-12-18T16:19:38;-3.80;99.90
60727;DHT22;46577;49.004;12.120;2022-12-18T16:22:04;-3.90;99.90
60727;DHT22;46577;49.004;12.120;2022-12-18T16:24:32;-4.00;99.90
60727;DHT22;46577;49.004;12.120;2022-12-18T16:26:59;-4.00;99.90
60727;DHT22;46577;49.004;12.120;2022-12-18T16:29:27;-4.00;99.90
60727;DHT22;46577;49.004;12.120;2022-12-18T16:31:57;-4.10;99.90
60727;DHT22;46577;49.004;12.120;2022-12-18T16:34:28;-4.10;99.90
60727;DHT22;46577;49.004;12.120;2022-12-18T16:36:59;-4.10;99.90
60727;DHT22;46577;49.004;12.120;2022-12-18T16:39:25;-4.10;99.90
60727;DHT22;46577;49.004;12.120;2022-12-18T16:41:51;-4.10;99.90
60727;DHT22;46577;49.004;12.120;2022-12-18T16:44:17;-4.10;99.90
60727;DHT22;46577;49.004;12.120;2022-12-18T16:46:43;-4.20;99.90
60727;DHT22;46577;49.004;12.120;2022-12-18T16:49:15;-4.20;99.90
60727;DHT22;46577;49.004;12.120;2022-12-18T16:51:41;-4.20;99.90
60727;DHT22;46577;49.004;12.120;2022-12-18T16:54:07;-4.20;99.90
60727;DHT22;46577;49.004;12.120;2022-12-18T16:56:33;-4.20;99.90
60727;DHT22;46577;49.004;12.120;2022-12-18T16:58:59;-4.30;99.90
60727;DHT22;46577;49.004;12.120;2022-12-18T17:01:27;-4.30;99.90
60727;DHT22;46577;49.004;12.120;2022-12-18T17:03:59;-4.30;99.90
60727;DHT22;46577;49.004;12.120;2022-12-18T17:06:26;-4.40;99.90
60727;DHT22;46577;49.004;12.120;2022-12-18T17:08:57;-4.40;99.90
60727;DHT22;46577;49.004;12.120;2022-12-18T17:11:24;-4.50;99.90
60727;DHT22;46577;49.004;12.120;2022-12-18T17:13:49;-4.50;99.90
60727;DHT22;46577;49.004;12.120;2022-12-18T17:16:15;-4.50;99.90
60727;DHT22;46577;49.004;12.120;2022-12-18T17:18:42;-4.50;99.90
60727;DHT22;46577;49.004;12.120;2022-12-18T17:21:09;-4.50;99.90
60727;DHT22;46577;49.004;12.120;2022-12-18T17:23:35;-4.60;99.90